createdAt,value
2022-10-04T00:02:31.117Z,100.00
2022-10-04T00:05:24.866Z,100.00
2022-10-04T00:08:31.006Z,100.00
2022-10-04T00:11:29.670Z,100.00
2022-10-04T00:14:23.654Z,100.00
2022-10-04T00:17:15.187Z,100.00
2022-10-04T00:20:05.917Z,100.00
2022-10-04T00:23:30.276Z,100.00
2022-10-04T00:27:11.674Z,100.00
2022-10-04T00:30:23.690Z,100.00
2022-10-04T00:33:34.227Z,100.00
2022-10-04T00:36:48.404Z,100.00
2022-10-04T00:39:44.074Z,100.00
2022-10-04T00:43:00.540Z,100.00
2022-10-04T00:45:56.739Z,100.00
2022-10-04T00:48:50.672Z,100.00
2022-10-04T00:51:47.575Z,100.00
2022-10-04T00:54:43.545Z,100.00
2022-10-04T00:57:40.350Z,100.00
2022-10-04T01:00:40.403Z,100.00
2022-10-04T01:03:38.492Z,100.00
2022-10-04T01:06:37.684Z,100.00
2022-10-04T01:09:28.513Z,100.00
2022-10-04T01:12:43.731Z,100.00
2022-10-04T01:15:58.837Z,100.00
2022-10-04T01:18:49.666Z,100.00
2022-10-04T01:21:40.235Z,100.00
2022-10-04T01:24:36.790Z,100.00
2022-10-04T01:27:41.561Z,100.00
2022-10-04T01:30:29.203Z,100.00
2022-10-04T01:33:17.018Z,100.00
2022-10-04T01:36:04.909Z,100.00
2022-10-04T01:38:53.207Z,100.00
2022-10-04T01:41:51.141Z,100.00
2022-10-04T01:44:46.446Z,100.00
2022-10-04T01:47:42.289Z,100.00
2022-10-04T01:50:35.794Z,100.00
2022-10-04T01:53:38.232Z,100.00
2022-10-04T01:56:31.406Z,100.00
2022-10-04T01:59:27.985Z,100.00
2022-10-04T02:02:27.605Z,100.00
2022-10-04T02:05:28.321Z,100.00
2022-10-04T02:08:23.109Z,100.00
2022-10-04T02:11:11.495Z,100.00
2022-10-04T02:14:00.519Z,100.00
2022-10-04T02:16:54.048Z,100.00
2022-10-04T02:19:45.125Z,100.00
2022-10-04T02:22:33.109Z,100.00
2022-10-04T02:25:22.559Z,100.00
2022-10-04T02:28:15.377Z,100.00
2022-10-04T02:31:22.450Z,100.00
2022-10-04T02:34:12.470Z,100.00
2022-10-04T02:37:04.525Z,100.00
2022-10-04T02:40:00.855Z,100.00
2022-10-04T02:43:04.889Z,100.00
2022-10-04T02:46:08.639Z,100.00
2022-10-04T02:49:19.511Z,100.00
2022-10-04T02:52:20.525Z,100.00
2022-10-04T02:55:19.587Z,100.00
2022-10-04T02:58:21.479Z,100.00
2022-10-04T03:01:43.946Z,100.00
2022-10-04T03:04:40.710Z,100.00
2022-10-04T03:07:52.634Z,100.00
2022-10-04T03:10:44.013Z,100.00
2022-10-04T03:13:43.052Z,100.00
2022-10-04T03:17:00.987Z,100.00
2022-10-04T03:19:51.969Z,100.00
2022-10-04T03:22:57.910Z,100.00
2022-10-04T03:26:21.405Z,100.00
2022-10-04T03:29:12.323Z,100.00
2022-10-04T03:32:04.742Z,100.00
2022-10-04T03:35:00.225Z,100.00
2022-10-04T03:37:49.143Z,100.00
2022-10-04T03:40:43.034Z,100.00
2022-10-04T03:43:34.665Z,100.00
2022-10-04T03:46:26.090Z,100.00
2022-10-04T03:49:33.617Z,100.00
2022-10-04T03:52:27.313Z,100.00
2022-10-04T03:55:26.063Z,100.00
2022-10-04T03:58:52.268Z,100.00
2022-10-04T04:01:46.810Z,100.00
2022-10-04T04:05:04.427Z,100.00
2022-10-04T04:08:14.870Z,100.00
2022-10-04T04:11:57.600Z,100.00
2022-10-04T04:14:53.935Z,100.00
2022-10-04T04:18:06.067Z,100.00
2022-10-04T04:20:59.479Z,100.00
2022-10-04T04:24:01.094Z,100.00
2022-10-04T04:27:04.668Z,100.00
2022-10-04T04:29:54.098Z,100.00
2022-10-04T04:32:49.119Z,100.00
2022-10-04T04:35:39.523Z,100.00
2022-10-04T04:38:27.248Z,100.00
2022-10-04T04:41:16.080Z,100.00
2022-10-04T04:44:14.914Z,100.00
2022-10-04T04:47:07.644Z,100.00
2022-10-04T04:49:57.689Z,100.00
2022-10-04T04:52:50.224Z,100.00
2022-10-04T04:56:02.837Z,100.00
2022-10-04T04:58:59.648Z,100.00
2022-10-04T05:01:51.047Z,100.00
2022-10-04T05:04:39.387Z,100.00
2022-10-04T05:07:27.349Z,100.00
2022-10-04T05:10:33.488Z,100.00
2022-10-04T05:13:21.402Z,100.00
2022-10-04T05:16:16.464Z,100.00
2022-10-04T05:19:14.501Z,100.00
2022-10-04T05:22:10.149Z,100.00
2022-10-04T05:25:02.782Z,100.00
2022-10-04T05:27:50.821Z,100.00
2022-10-04T05:30:51.016Z,100.00
2022-10-04T05:33:46.334Z,100.00
2022-10-04T05:36:53.214Z,100.00
2022-10-04T05:39:54.668Z,100.00
2022-10-04T05:42:46.319Z,100.00
2022-10-04T05:45:33.952Z,100.00
2022-10-04T05:48:22.291Z,100.00
2022-10-04T05:51:19.685Z,100.00
2022-10-04T05:54:11.703Z,100.00
2022-10-04T05:57:34.689Z,100.00
2022-10-04T06:00:51.655Z,100.00
2022-10-04T06:04:10.492Z,100.00
2022-10-04T06:07:05.548Z,100.00
2022-10-04T06:10:10.945Z,100.00
2022-10-04T06:13:09.478Z,100.00
2022-10-04T06:16:21.190Z,100.00
2022-10-04T06:19:55.858Z,100.00
2022-10-04T06:22:49.733Z,100.00
2022-10-04T06:25:47.114Z,100.00
2022-10-04T06:28:41.890Z,100.00
2022-10-04T06:32:16.674Z,100.00
2022-10-04T06:36:00.176Z,100.00
2022-10-04T06:39:11.038Z,100.00
2022-10-04T06:42:38.149Z,100.00
2022-10-04T06:45:47.593Z,100.00
2022-10-04T06:49:18.386Z,100.00
2022-10-04T06:52:49.560Z,100.00
2022-10-04T06:56:35.079Z,100.00
2022-10-04T07:00:07.875Z,100.00
2022-10-04T07:03:05.441Z,100.00
2022-10-04T07:06:03.071Z,100.00
2022-10-04T07:08:56.210Z,100.00
2022-10-04T07:11:53.795Z,100.00
2022-10-04T07:14:52.809Z,100.00
2022-10-04T07:17:44.432Z,100.00
2022-10-04T07:20:37.314Z,100.00
2022-10-04T07:23:29.686Z,100.00
2022-10-04T07:26:29.440Z,100.00
2022-10-04T07:29:23.106Z,100.00
2022-10-04T07:32:22.332Z,100.00
2022-10-04T07:35:23.029Z,100.00
2022-10-04T07:38:21.527Z,100.00
2022-10-04T07:41:18.134Z,100.00
2022-10-04T07:44:17.178Z,100.00
2022-10-04T07:47:20.536Z,100.00
2022-10-04T07:50:24.530Z,100.00
2022-10-04T07:53:17.963Z,100.00
2022-10-04T07:56:13.789Z,100.00
2022-10-04T07:59:26.128Z,100.00
2022-10-04T08:02:30.937Z,100.00
2022-10-04T08:05:25.617Z,100.00
2022-10-04T08:08:31.688Z,100.00
2022-10-04T08:11:31.823Z,100.00
2022-10-04T08:14:35.781Z,100.00
2022-10-04T08:17:42.852Z,100.00
2022-10-04T08:20:44.135Z,100.00
2022-10-04T08:23:47.250Z,100.00
2022-10-04T08:26:49.175Z,100.00
2022-10-04T08:30:00.649Z,100.00
2022-10-04T08:33:07.674Z,100.00
2022-10-04T08:36:07.181Z,100.00
2022-10-04T08:39:00.379Z,100.00
2022-10-04T08:42:33.579Z,100.00
2022-10-04T08:46:09.714Z,100.00
2022-10-04T08:49:22.219Z,100.00
2022-10-04T08:52:27.224Z,100.00
2022-10-04T08:55:45.681Z,100.00
2022-10-04T08:59:13.804Z,100.00
2022-10-04T09:03:05.182Z,100.00
2022-10-04T09:06:12.791Z,100.00
2022-10-04T09:09:39.419Z,100.00
2022-10-04T09:12:54.629Z,100.00
2022-10-04T09:15:56.973Z,100.00
2022-10-04T09:19:01.509Z,100.00
2022-10-04T09:22:19.982Z,100.00
2022-10-04T09:25:23.061Z,100.00
2022-10-04T09:28:17.898Z,100.00
2022-10-04T09:31:36.100Z,100.00
2022-10-04T09:34:42.861Z,100.00
2022-10-04T09:37:48.136Z,100.00
2022-10-04T09:41:06.483Z,100.00
2022-10-04T09:44:29.066Z,100.00
2022-10-04T09:47:53.654Z,100.00
2022-10-04T09:51:26.229Z,100.00
2022-10-04T09:54:44.774Z,100.00
2022-10-04T09:58:00.835Z,100.00
2022-10-04T10:00:57.136Z,100.00
2022-10-04T10:04:25.195Z,100.00
2022-10-04T10:07:42.320Z,100.00
2022-10-04T10:11:22.359Z,100.00
2022-10-04T10:14:52.332Z,100.00
2022-10-04T10:17:51.260Z,100.00
2022-10-04T10:21:11.673Z,100.00
2022-10-04T10:24:36.013Z,100.00
2022-10-04T10:27:50.933Z,100.00
2022-10-04T10:30:58.486Z,100.00
2022-10-04T10:34:28.449Z,100.00
2022-10-04T10:37:24.958Z,100.00
2022-10-04T10:40:43.710Z,100.00
2022-10-04T10:43:50.130Z,100.00
2022-10-04T10:46:52.147Z,100.00
2022-10-04T10:50:04.705Z,100.00
2022-10-04T10:53:21.230Z,100.00
2022-10-04T10:56:52.651Z,100.00
2022-10-04T11:00:20.300Z,100.00
2022-10-04T11:03:48.910Z,100.00
2022-10-04T11:07:10.647Z,100.00
2022-10-04T11:10:41.801Z,100.00
2022-10-04T11:14:19.309Z,100.00
2022-10-04T11:17:37.947Z,88.87
2022-10-04T11:20:49.101Z,82.08
2022-10-04T11:24:14.201Z,78.06
2022-10-04T11:27:14.709Z,90.21
2022-10-04T11:30:23.439Z,98.84
2022-10-04T11:33:48.357Z,99.85
2022-10-04T11:36:48.909Z,82.96
2022-10-04T11:39:55.782Z,75.26
2022-10-04T11:43:01.449Z,80.79
2022-10-04T11:46:18.894Z,77.86
2022-10-04T11:49:27.399Z,74.47
2022-10-04T11:53:03.375Z,90.16
2022-10-04T11:56:22.868Z,81.27
2022-10-04T11:59:37.486Z,87.75
2022-10-04T12:03:19.116Z,84.21
2022-10-04T12:06:36.444Z,81.21
2022-10-04T12:09:37.084Z,80.92
2022-10-04T12:12:55.531Z,87.30
2022-10-04T12:15:56.992Z,80.71
2022-10-04T12:19:28.306Z,76.59
2022-10-04T12:22:40.096Z,74.54
2022-10-04T12:26:02.408Z,80.79
2022-10-04T12:29:17.440Z,82.92
2022-10-04T12:32:11.360Z,73.34
2022-10-04T12:35:11.707Z,82.01
2022-10-04T12:38:38.137Z,63.55
2022-10-04T12:42:24.095Z,70.79
2022-10-04T12:45:29.929Z,74.17
2022-10-04T12:49:21.669Z,73.75
2022-10-04T12:52:33.287Z,74.48
2022-10-04T12:55:56.348Z,73.42
2022-10-04T12:59:33.412Z,71.93
2022-10-04T13:02:55.024Z,70.16
2022-10-04T13:06:19.416Z,72.22
2022-10-04T13:09:26.247Z,67.90
2022-10-04T13:19:34.484Z,71.49
2022-10-04T13:22:57.445Z,64.81
2022-10-04T13:26:22.697Z,70.22
2022-10-04T13:29:23.781Z,67.36
2022-10-04T13:32:22.025Z,67.05
2022-10-04T13:35:25.093Z,71.82
2022-10-04T13:42:00.925Z,71.61
2022-10-04T13:45:05.189Z,67.98
2022-10-04T13:48:22.014Z,71.12
2022-10-04T13:51:48.479Z,71.58
2022-10-04T13:55:04.176Z,65.05
2022-10-04T13:57:59.497Z,71.61
2022-10-04T14:01:10.747Z,67.33
2022-10-04T14:04:20.915Z,74.22
2022-10-04T14:07:56.611Z,72.68
2022-10-04T14:11:43.948Z,70.98
2022-10-04T14:15:09.626Z,70.55
2022-10-04T14:18:37.440Z,73.89
2022-10-04T14:22:03.492Z,71.31
2022-10-04T14:25:24.438Z,76.74
2022-10-04T14:29:01.781Z,75.77
2022-10-04T14:32:39.855Z,70.78
2022-10-04T14:35:41.171Z,76.27
2022-10-04T14:38:56.503Z,74.24
2022-10-04T14:42:31.126Z,73.02
2022-10-04T14:45:40.311Z,75.93
2022-10-04T14:48:49.483Z,73.89
2022-10-04T14:52:25.974Z,72.23
2022-10-04T14:55:38.371Z,78.25
2022-10-04T14:58:41.643Z,75.61
2022-10-04T15:01:30.390Z,74.19
2022-10-04T15:07:41.307Z,79.82
2022-10-04T15:10:38.421Z,75.13
2022-10-04T15:13:34.238Z,72.94
2022-10-04T15:16:36.508Z,70.62
2022-10-04T15:19:33.382Z,77.42
2022-10-04T15:22:36.912Z,79.12
2022-10-04T15:25:49.646Z,78.03
2022-10-04T15:28:57.028Z,72.60
2022-10-04T15:32:02.876Z,69.33
2022-10-04T15:35:05.376Z,76.70
2022-10-04T15:37:57.426Z,76.02
2022-10-04T15:41:15.058Z,82.05
2022-10-04T15:44:40.350Z,78.76
2022-10-04T15:47:52.562Z,80.97
2022-10-04T15:51:01.825Z,80.12
2022-10-04T15:54:18.637Z,83.62
2022-10-04T15:57:33.755Z,80.33
2022-10-04T16:00:30.105Z,80.70
2022-10-04T16:03:49.376Z,87.70
2022-10-04T16:06:52.387Z,86.07
2022-10-04T16:10:02.363Z,89.71
2022-10-04T16:17:49.467Z,93.32
2022-10-04T16:25:50.442Z,100.00
2022-10-04T16:29:06.532Z,99.25
2022-10-04T16:32:16.353Z,100.00
2022-10-04T16:35:08.871Z,100.00
2022-10-04T16:38:20.872Z,100.00
2022-10-04T16:41:18.390Z,100.00
2022-10-04T16:44:28.939Z,100.00
2022-10-04T16:47:27.416Z,100.00
2022-10-04T16:55:25.024Z,100.00
2022-10-04T17:02:32.763Z,100.00
2022-10-04T17:10:34.254Z,100.00
2022-10-04T17:13:56.384Z,100.00
2022-10-04T17:16:58.849Z,100.00
2022-10-04T17:20:01.427Z,100.00
2022-10-04T17:23:13.558Z,100.00
2022-10-04T17:26:19.150Z,100.00
2022-10-04T17:35:12.552Z,100.00
2022-10-04T17:38:50.242Z,100.00
2022-10-04T17:47:51.491Z,100.00
2022-10-04T18:01:30.592Z,100.00
2022-10-04T18:08:31.515Z,100.00
2022-10-04T18:11:35.607Z,100.00
2022-10-04T18:15:01.155Z,100.00
2022-10-04T18:19:08.247Z,100.00
2022-10-04T18:22:15.275Z,100.00
2022-10-04T18:26:35.305Z,100.00
2022-10-04T18:31:13.147Z,100.00
2022-10-04T18:52:43.730Z,100.00
2022-10-04T19:09:05.299Z,100.00
2022-10-04T19:12:19.596Z,100.00
2022-10-04T19:16:17.278Z,100.00
2022-10-04T19:35:30.824Z,100.00
2022-10-04T19:38:44.110Z,100.00
2022-10-04T19:41:50.283Z,100.00
2022-10-04T19:45:28.783Z,100.00
2022-10-04T19:48:29.240Z,100.00
2022-10-04T19:51:34.034Z,100.00
2022-10-04T19:54:35.245Z,100.00
2022-10-04T19:57:41.430Z,100.00
2022-10-04T20:00:53.272Z,100.00
2022-10-04T20:04:07.732Z,100.00
2022-10-04T20:07:02.923Z,100.00
2022-10-04T20:10:32.453Z,100.00
2022-10-04T20:13:40.404Z,100.00
2022-10-04T20:17:07.600Z,100.00
2022-10-04T20:20:07.049Z,100.00
2022-10-04T20:23:05.011Z,100.00
2022-10-04T20:26:08.810Z,100.00
2022-10-04T20:28:58.321Z,100.00
2022-10-04T20:35:17.908Z,100.00
2022-10-04T20:38:32.428Z,100.00
2022-10-04T20:42:23.209Z,100.00
2022-10-04T20:45:55.346Z,100.00
2022-10-04T20:48:50.610Z,100.00
2022-10-04T20:51:41.105Z,100.00
2022-10-04T20:55:02.196Z,100.00
2022-10-04T20:57:50.133Z,100.00
2022-10-04T21:04:31.997Z,100.00
2022-10-04T21:07:52.710Z,100.00
2022-10-04T21:11:24.595Z,100.00
2022-10-04T21:14:37.027Z,100.00
2022-10-04T21:18:23.545Z,100.00
2022-10-04T21:21:14.854Z,100.00
2022-10-04T21:25:01.297Z,100.00
2022-10-04T21:27:56.823Z,100.00
2022-10-04T21:30:52.934Z,100.00
2022-10-04T21:33:59.848Z,100.00
2022-10-04T21:36:47.896Z,100.00
2022-10-04T21:39:40.554Z,100.00
2022-10-04T21:42:46.838Z,100.00
2022-10-04T21:45:45.478Z,100.00
2022-10-04T21:48:49.050Z,100.00
2022-10-04T21:51:40.562Z,100.00
2022-10-04T21:54:48.609Z,100.00
2022-10-04T21:57:41.461Z,100.00
2022-10-04T22:00:28.986Z,100.00
2022-10-04T22:03:18.088Z,100.00
2022-10-04T22:06:07.630Z,100.00
2022-10-04T22:08:55.095Z,100.00
2022-10-04T22:11:42.573Z,100.00
2022-10-04T22:14:30.038Z,100.00
2022-10-04T22:17:17.439Z,100.00
2022-10-04T22:20:07.303Z,100.00
2022-10-04T22:22:57.063Z,100.00
2022-10-04T22:25:44.336Z,100.00
2022-10-04T22:28:34.601Z,100.00
2022-10-04T22:31:26.912Z,100.00
2022-10-04T22:34:19.266Z,100.00
2022-10-04T22:37:12.867Z,100.00
2022-10-04T22:40:00.689Z,100.00
2022-10-04T22:42:55.781Z,100.00
2022-10-04T22:45:44.495Z,100.00
2022-10-04T22:48:33.257Z,100.00
2022-10-04T22:51:21.417Z,100.00
2022-10-04T22:54:15.599Z,100.00
2022-10-04T22:57:03.092Z,100.00
2022-10-04T22:59:52.877Z,100.00
2022-10-04T23:02:40.505Z,100.00
2022-10-04T23:05:29.082Z,100.00
2022-10-04T23:08:17.849Z,100.00
2022-10-04T23:11:06.826Z,100.00
2022-10-04T23:13:54.398Z,100.00
2022-10-04T23:16:43.007Z,100.00
2022-10-04T23:19:32.338Z,100.00
2022-10-04T23:22:27.950Z,100.00
2022-10-04T23:25:19.317Z,100.00
2022-10-04T23:28:17.796Z,100.00
2022-10-04T23:31:17.956Z,100.00
2022-10-04T23:34:19.004Z,100.00
2022-10-04T23:37:18.480Z,100.00
2022-10-04T23:40:10.915Z,100.00
2022-10-04T23:43:05.348Z,100.00
2022-10-04T23:45:58.609Z,100.00
2022-10-04T23:48:47.801Z,100.00
2022-10-04T23:51:35.508Z,100.00
2022-10-04T23:54:22.929Z,100.00
2022-10-04T23:57:19.287Z,100.00
